Main page
METAR-TAF:

METAR-TAF

Airports :

Plzeň, Czech Republic

latitude: 49-40-31N, longitude: 13-16-29E, elevation: 362 m

Current weather observation

The report was made 32 minutes ago, at 14:00 UTC
Wind 11 kt from the Southwest, varying between South and West
Temperature 10°C
Humidity 40%
Pressure 1022 hPa
Visibility 10 km or more
Broken clouds at a height of 16000 ft

METAR: LKLN 221400Z AUTO 22011KT 190V270 9999 BKN160 10/M03 Q1022

Time: 15:32 (14:32 UTC)


TAF: missing

Weather observations and forecasts of more than 4000 airports (METAR and TAF reports).

The available stations are represented by yellow and red dots on the map.

Hover mouse over dot to see the name of the station.

Then click to see weather observations and forecasts.

To change the map : click on the green buttons with a black cross to zoom in, on the green button with a dash to zoom out, or on the green arrows for adjacent maps.


METAR-TAF: